N7QME-2 messages


fromtotime message
N7QME-2 N7QME 05/05 12:42:32z Send another bms B1 13.24 18 0.0 64.0 65.5 95
N7QME-2 N7QME 05/05 12:23:32z Send another system phv 13.23 bv 13.26 bc -0.40 bp -5.3 tp 550 rt -0 SOC 77.2
N7QME-2 N7QME 05/05 11:41:17z Send another hum g 12 v 63. o 73. e 72 f 41 b 76 w 62 h 75.
N7QME-2 N7QME 05/05 11:20:05z Send another temps g 63.9 v 63.3 o 58.4 e 60.8 f 37.9 b 59.0 w 63.5 h 59.1 75.0.
N7QME-2 N7QME 05/05 10:21:12z Send another system phv 13.31 bv 13.31 bc 0.00 bp 0.0 tp 576 rt 0 SOC 80.6
N7QME-2 N7QME 05/05 09:40:57z Send another hum g 14 v 62 o 72. e 72 f 36 b 75 w 61 h 74
N7QME-2 N7QME 05/05 09:22:23z Send another temps g 64.4 v 64.9 o 59.1 e .61.2 f 39.3. b 59.2 w .64.6 h 59.5 75.0.
N7QME-2 N7QME 05/05 09:03:27z Send another bms B2 13.34 31 0.0 64.4 65.5 0
N7QME-2 N7QME 05/05 08:43:22z Send another bms B1 13.29 19 0.0 64.6 66.2 95
N7QME-2 N7QME 05/05 08:23:47z Send another system phv 13.31 bv 13.31 bc 0.00 bp 0.0 tp 576 rt -798 SOC 80.4
N7QME-2 N7QME 05/05 07:44:07z Send another hum g 12 v 61 o 67. e 72 f 44. b .75 w 60 h 74
N7QME-2 N7QME 05/05 07:23:57z Send another temps g 65.1 v .67.1 o .61.5 e 61.9 f 39.0 b .59.9 w .66.5 h 59.8 75.0.
N7QME-2 N7QME 05/05 07:05:17z Send another bms B2 13.34 28 0.0 64.8 65.7 0
N7QME-2 N7QME 05/05 06:44:37z Send another bms B1 13.28 16 0.0 64.8 66.4 95
N7QME-2 N7QME 05/05 06:25:19z Send another system phv 13.26 bv 13.31 bc 0.00 bp 0.0 tp 595 rt -779 SOC 80.5
N7QME-2 N7QME 05/05 05:46:59z Send another hum g 12 v 61. o 59. e 72. f 40. b 76 w 58 h 74
N7QME-2 N7QME 05/05 05:25:47z Send another temps g 65.8 v 69.5 o .67.6 e 62.6 f 38.5 b 60.5 w .69.1 h 60.0 75.0.
N7QME-2 N7QME 05/05 05:07:52z Send another bms B2 13.34 25 0.0 64.8 65.8 0
N7QME-2 N7QME 05/05 03:48:52z Send another hum g 10 v 61 o 55 e 73 f .32 b 76 w 56 h 74
N7QME-2 N7QME 05/05 03:31:07z Send another temps g 66.1. v 70.9 o .74.1 e 62.8 f 39.1. b 60.7 w 71.6 h 59.9 75.0.
N7QME-2 N7QME 05/05 03:10:58z Send another bms B2 13.29 27 -3.9 64.8 65.3 0
N7QME-2 N7QME 05/05 02:50:12z Send another bms B1 13.29 18 0.0 64.6 66.2 95
N7QME-2 N7QME 05/05 02:29:23z Send another system phv 13.31 bv 13.31 bc 0.00 bp 0.0 tp 759 rt -169 SOC 80.8
N7QME-2 N7QME 05/05 01:47:27z Send another hum g 12 v 61. o 54. e 73 f 37 b 75 w .56 h 74.
N7QME-2 N7QME 05/05 01:25:39z Send another temps g 65.6 v 71.3 o 80.0 e 62.4 f 39.7. b 60.3 w 72.3. h 59.7 75.0.
N7QME-2 N7QME 05/05 01:05:07z Send another bms B2 13.43 22 0.0 64.6 65.7 0
N7QME-2 N7QME 05/05 00:47:42z Send another bms B1 13.38 18 0.0 64.4 66.0 97
N7QME-2 N7QME 05/05 00:27:37z Send another system phv 13.37 bv 13.38 bc 0.00 bp 0.0 tp 864 rt -64 SOC 84.6
N7QME-2 N7QME 05/04 23:50:12z Send another hum g 10 v 60 o .55 e 72 f 46. b 74 w .58 h 73
N7QME-2 N7QME 05/04 23:31:57z Send another temps g 65.1 v 71.6 o 80.0. e 62.1 f .38.9 b 59.9 w 70.5. h 59.4 75.0.
N7QME-2 N7QME 05/04 23:13:07z Send another bms B2 13.46 22 2.0 64.4 65.5 0
N7QME-2 N7QME 05/04 22:53:07z Send another bms B1 13.38 20 0.0 64.2 65.8 97
N7QME-2 N7QME 05/04 22:34:32z Send another system phv 13.42 bv 13.41 bc 0.00 bp 0.0 tp 748 rt -177 SOC 86.6
N7QME-2 N7QME 05/04 21:53:47z Send another hum g 12. v .60 o 66 e 71 f .43 b 74 w 59 h .73
N7QME-2 N7QME 05/04 21:35:32z Send another temps g 64.7 v 70.3. o 70.4. e 61.7 f 38.0 b 59.6 w 67.7 h 59.0 75.0.
N7QME-2 N7QME 05/04 21:14:07z Send another bms B2 13.40 23 0.0 64.2 65.3 0
N7QME-2 N7QME 05/04 20:56:24z Send another bms B1 13.36 18 0.0 64.2 66.0 96
N7QME-2 N7QME 05/04 20:36:39z Send another system phv 13.44 bv 13.41 bc 1.80 bp 24.1 tp 642 rt -282 SOC 87.0
N7QME-2 N7QME 05/04 19:54:12z Send another hum g 15. v 63 o 68 e 71 f 40 b 74 w 59 h 74
N7QME-2 N7QME 05/04 19:34:32z Send another temps g 64.5 v 67.1. o 65.5 e 61.6 f 38.8 b .60.0 w 66.3 h 59.1 75.0.
N7QME-2 N7QME 05/04 19:13:32z Send another bms B2 13.45 21 2.9 64.4 65.7 0
N7QME-2 N7QME 05/04 18:55:57z Send another bms B1 13.40 18 1.6 64.4 66.0 97
N7QME-2 N7QME 05/04 18:37:39z Send another system phv 13.41 bv 13.39 bc 0.00 bp 0.0 tp 481 rt -317 SOC 86.0
N7QME-2 N7QME 05/04 18:18:22z Send another Bilge fore 1 0 0 mid 1 0 0 aft 1 0 0
N7QME-2 N7QME 05/04 18:00:12z Send another hum g 13. v .64 o .70 e 70 f 56. b 73 w .59 h .72
N7QME-2 N7QME 05/04 17:45:57z Send another dinghy 09:28:53 p 10.67 v 0.3 s 12.62
N7QME-2 N7QME 05/04 17:40:07z Send another temps g 64.3 v 64.7. o 63.6. e 61.4 f .38.3 b 60.3 w 66.3. h 60.9 75.0.
N7QME-2 N7QME 05/04 17:19:47z Send another bms B2 13.45 25 2.7 64.6 65.5 0
N7QME-2 N7QME 05/04 16:02:02z Send another hum g 15 v 65. o 74 e 69 f 43 b 73 w 60 h 74
N7QME-2 N7QME 05/04 15:05:32z Send another bms B1 13.30 21 0.7 64.8 66.6 95
N7QME-2 N7QME 05/04 14:05:47z Send another hum g 13 v 59. o 72. e 69 f 41. b 75 w 59 h 74 Stale 2
N7QME-2 N7QME 05/04 13:06:38z Send another bms B1 13.27 18 0.0 65.1 66.6 95
N7QME-2 N7QME 05/04 08:05:27z Send another hum g 10. v 59. o 51. e 68 f 39. b 75 w 54 h 71 Stale 2
N7QME-2 N7QME 05/04 04:53:13z Send another system phv 13.30 bv 13.31 bc 0.30 bp 4.0 tp 1621 rt -635 SOC 80.8
N7QME-2 N7QME 05/04 04:13:42z Send another hum g 10. v 59. o 38. e .69 f 38. b 71 w 53 h .72 Stale 2
N7QME-2 N7QME 05/04 03:52:29z Send another temps g 67.7 v 60.0 o .81.6 e 64.2 f 38.3 b 60.2 w 74.0 h 60.9 75.0. Stale 2
N7QME-2 N7QME 05/04 03:32:27z Send another bms B2 13.34 23 -1.1 64.6 65.8 0
N7QME-2 N7QME 05/04 03:11:07z Send another bms B1 13.30 19 0.0 64.4 65.8 96
N7QME-2 N7QME 05/04 02:49:24z Send another system phv 13.32 bv 13.34 bc -0.80 bp -10.7 tp 1717 rt -538 SOC 82.4
N7QME-2 N7QME 05/04 02:07:04z Send another hum g 11. v 59. o 30 e 70. f .26 b 75 w .54 h 72 Stale 2
N7QME-2 N7QME 05/04 01:48:02z Send another temps g 67.6 v 60.0 o .89.7 e 63.6 f .38.8 b 59.4 w 74.7. h 60.6 75.0. Stale 2
N7QME-2 N7QME 05/04 01:27:27z Send another bms B2 13.40 22 0.0 64.0 65.1 0
N7QME-2 N7QME 05/04 01:08:02z Send another bms B1 13.35 18 0.0 63.7 65.1 96
N7QME-2 N7QME 05/04 00:48:37z Send another system phv 13.37 bv 13.38 bc 0.00 bp 0.0 tp 1715 rt -400 SOC 84.6
N7QME-2 N7QME 05/04 00:10:02z Send another hum g 10. v 59. o .29 e .69 f 39. b 74 w .57 h 72 Stale 2
N7QME-2 N7QME 05/03 23:50:02z Send another temps g 66.8. v 60.0 o 91.6. e 62.9 f .38.3 b 59.5 w 72.9. h 60.4 75.0. Stale 2
N7QME-2 N7QME 05/03 23:32:37z Send another bms B2 13.41 24 0.0 63.5 64.6 0
N7QME-2 N7QME 05/03 23:12:07z Send another bms B1 13.37 21 0.0 63.1 64.8 96
N7QME-2 N7QME 05/03 22:52:12z Send another system phv 13.41 bv 13.39 bc 0.00 bp 0.0 tp 1512 rt -4037 SOC 86.0
N7QME-2 N7QME 05/03 22:10:27z Send another hum g 12. v 59. o .46 e 73 f 41 b 75 w 61 h 71 Stale 2
N7QME-2 N7QME 05/03 21:50:12z Send another temps g 65.5 v 60.0 o 81.8. e 62.1 f 38.0 b 59.7 w 69.2. h 60.4 75.0. Stale 2
N7QME-2 N7QME 05/03 21:32:27z Send another bms B2 13.44 23 0.0 63.3 64.2 0
N7QME-2 N7QME 05/03 21:11:17z Send another bms B1 13.39 16 0.0 63.1 64.8 97
N7QME-2 N7QME 05/03 20:52:47z Send another system phv 13.43 bv 13.41 bc 1.10 bp 14.8 tp 1500 rt -4049 SOC 87.1
N7QME-2 N7QME 05/03 20:11:12z Send another hum g 14 v 59. o .64 e 74 f 36 b 75. w 61 h 69. Stale 2
N7QME-2 N7QME 05/03 19:49:47z Send another temps g 64.9 v 60.0 o 71.8. e 61.7 f 38.4. b .60.4 w 65.7. h .61.6 75.0. Stale 2
N7QME-2 N7QME 05/03 19:31:59z Send another bms B2 13.46 24 1.3 63.3 64.2 0
N7QME-2 N7QME 05/03 19:13:22z Send another bms B1 13.41 19 0.1 63.0 64.4 97
N7QME-2 N7QME 05/03 18:55:28z Send another system phv 13.47 bv 13.44 bc 3.80 bp 51.1 tp 1406 rt -4141 SOC 88.1
N7QME-2 N7QME 05/03 18:16:07z Send another hum g 12 v 59. o .74 e .73 f 42. b 75 w 62 h 62. Stale 2
N7QME-2 N7QME 05/03 17:56:37z Send another temps g 64.9 v 60.0 o 64.9. e 61.7 f 38.8 b 61.6. w 64.4 h .67.0 75.0. Stale 2
N7QME-2 N7QME 05/03 17:38:52z Send another bms B2 13.44 23 2.0 63.3 64.4 0
N7QME-2 N7QME 05/03 17:20:12z Send another bms B1 13.38 18 0.0 63.0 64.8 97
N7QME-2 N7QME 05/03 17:01:08z Send another system phv 13.42 bv 13.41 bc 1.10 bp 14.8 tp 1266 rt -4279 SOC 87.1
N7QME-2 N7QME 05/03 02:43:02z Send another temps g 64.8 v 60.0 o 77.0 e 61.4 f 38.6 b 59.8 w 70.9 h 59.1 75.0. Stale 2
N7QME-2 N7QME 05/03 02:23:52z Send another bms B2 13.39 23 -1.5 63.5 64.6 0
N7QME-2 N7QME 05/03 02:04:37z Send another bms B1 13.35 18 0.0 63.0 64.6 96
N7QME-2 N7QME 05/03 01:46:52z Send another system phv 13.35 bv 13.38 bc 0.00 bp 0.0 tp 1138 rt -32 SOC 84.6
N7QME-2 N7QME 05/03 01:07:36z Send another hum g 14 v 59. o 57 e 71 f 50 b .74 w .55 h 72 Stale 2
N7QME-2 N7QME 05/03 00:46:17z Send another temps g 64.4. v 60.0 o 76.6 e 61.1 f 38.9 b 59.7 w 69.9. h 59.5 75.0. Stale 2 5
N7QME-2 N7QME 05/03 00:28:48z Send another bms B2 13.42 20 0.0 63.0 64.0 0
N7QME-2 N7QME 05/03 00:10:53z Send another bms B1 13.37 18 0.7 62.6 64.4 96
N7QME-2 N7QME 05/02 23:52:37z Send another system phv 13.35 bv 13.38 bc 0.00 bp 0.0 tp 1124 rt -46 SOC 85.2
N7QME-2 N7QME 05/02 23:12:28z Send another hum g 12 v 59. o .59 e 71. f 37 b 75 w 57 h 73 Stale 2
N7QME-2 N7QME 05/02 22:51:52z Send another temps g 63.6 v 60.0 o 73.6. e 60.3 f 39.3 b 58.4 w 67.5. h 58.2 75.0. Stale 2
N7QME-2 N7QME 05/02 22:31:07z Send another bms B2 13.42 22 0.0 62.8 63.9 0
N7QME-2 N7QME 05/02 22:12:18z Send another bms B1 13.38 18 0.0 62.4 64.0 97
N7QME-2 N7QME 05/02 21:51:03z Send another system phv 13.38 bv 13.41 bc 0.00 bp 0.0 tp 1105 rt -64 SOC 86.5
N7QME-2 N7QME 05/02 21:13:53z Send another hum g 12 v 59. o 70 e 69 f 50. b 74 w 58 h 73 Stale 2
N7QME-2 N7QME 05/02 20:52:18z Send another temps g 63.2 v 60.0 o 63.0. e 60.0 f 38.9 b 58.8 w 65.1. h 58.0 75.0. Stale 2